createdAt,value
2023-02-07T00:02:29.348Z,3.21
2023-02-07T00:18:12.203Z,3.21
2023-02-07T00:33:54.602Z,3.21
2023-02-07T00:49:37.844Z,3.209
2023-02-07T01:05:20.159Z,3.209
2023-02-07T01:21:03.140Z,3.213
2023-02-07T01:36:46.314Z,3.21
2023-02-07T01:52:29.601Z,3.212
2023-02-07T02:08:12.399Z,3.209
2023-02-07T02:23:54.848Z,3.21
2023-02-07T02:39:37.611Z,3.209
2023-02-07T02:55:20.216Z,3.207
2023-02-07T03:11:03.508Z,3.207
2023-02-07T03:26:46.454Z,3.207
2023-02-07T03:42:29.527Z,3.207
2023-02-07T03:58:11.865Z,3.207
2023-02-07T04:13:55.043Z,3.207
2023-02-07T04:29:37.851Z,3.207
2023-02-07T04:45:20.281Z,3.207
2023-02-07T05:01:03.379Z,3.207
2023-02-07T05:16:46.265Z,3.21
2023-02-07T05:32:29.307Z,3.207
2023-02-07T05:48:12.462Z,3.206
2023-02-07T06:03:55.661Z,3.205
2023-02-07T06:19:38.708Z,3.207
2023-02-07T06:35:21.815Z,3.207
2023-02-07T06:51:04.121Z,3.209
2023-02-07T07:06:46.853Z,3.209
2023-02-07T07:22:29.528Z,3.207
2023-02-07T07:38:12.546Z,3.207
2023-02-07T07:53:54.976Z,3.207
2023-02-07T08:09:37.833Z,3.207
2023-02-07T08:25:20.924Z,3.21
2023-02-07T08:41:04.209Z,3.21
2023-02-07T08:56:46.973Z,3.22
2023-02-07T09:12:29.245Z,3.415
2023-02-07T09:28:11.489Z,3.355
2023-02-07T09:43:54.088Z,3.294
2023-02-07T09:59:36.247Z,3.274
2023-02-07T10:15:18.696Z,3.263
2023-02-07T10:31:01.058Z,3.256
2023-02-07T10:46:43.640Z,3.376
2023-02-07T11:02:26.700Z,3.329
2023-02-07T11:18:09.164Z,3.292
2023-02-07T11:33:51.165Z,3.276
2023-02-07T11:49:33.999Z,3.265
2023-02-07T12:05:16.838Z,3.259
2023-02-07T12:20:59.658Z,3.253
2023-02-07T12:36:42.823Z,3.247
2023-02-07T12:52:24.946Z,3.281
2023-02-07T13:08:07.673Z,3.296
2023-02-07T13:23:50.266Z,3.279
2023-02-07T13:39:32.697Z,3.27
2023-02-07T13:55:15.581Z,3.261
2023-02-07T14:10:58.369Z,3.383
2023-02-07T14:11:45.656Z,3.361
2023-02-07T14:27:28.046Z,3.329
2023-02-07T14:43:10.921Z,3.294
2023-02-07T14:58:53.085Z,3.281
2023-02-07T15:14:35.238Z,3.271
2023-02-07T15:30:17.604Z,3.263
2023-02-07T15:46:00.132Z,3.256
2023-02-07T16:01:42.793Z,3.25
2023-02-07T16:17:26.088Z,3.246
2023-02-07T16:33:09.042Z,3.242
2023-02-07T16:48:51.519Z,3.239
2023-02-07T17:04:33.940Z,3.235
2023-02-07T17:20:16.768Z,3.234
2023-02-07T17:35:59.531Z,3.231
2023-02-07T17:51:41.873Z,3.229
2023-02-07T18:07:24.513Z,3.227
2023-02-07T18:23:07.618Z,3.227
2023-02-07T18:38:50.781Z,3.225
2023-02-07T18:54:33.055Z,3.224
2023-02-07T19:10:16.098Z,3.223
2023-02-07T19:25:58.757Z,3.216
2023-02-07T19:41:41.605Z,3.216
2023-02-07T19:57:24.645Z,3.216
2023-02-07T20:13:07.675Z,3.214
2023-02-07T20:28:50.744Z,3.213
2023-02-07T20:44:33.872Z,3.213
2023-02-07T21:00:16.398Z,3.212
2023-02-07T21:15:58.893Z,3.212
2023-02-07T21:31:42.021Z,3.212
2023-02-07T21:47:24.338Z,3.21
2023-02-07T22:03:07.565Z,3.21
2023-02-07T22:18:50.666Z,3.21
2023-02-07T22:34:33.594Z,3.21
2023-02-07T22:50:16.680Z,3.21
2023-02-07T23:05:59.888Z,3.21
2023-02-07T23:21:42.376Z,3.21
2023-02-07T23:37:25.185Z,3.209
2023-02-07T23:53:07.891Z,3.209
